sensor_id;sensor_type;location;lat;lon;timestamp;P1;durP1;ratioP1;P2;durP2;ratioP2
36855;SDS011;22788;51.434;6.786;2023-11-19T00:00:36;2.43;;;2.23;;
36855;SDS011;22788;51.434;6.786;2023-11-19T00:03:02;4.73;;;2.40;;
36855;SDS011;22788;51.434;6.786;2023-11-19T00:05:28;2.37;;;2.17;;
36855;SDS011;22788;51.434;6.786;2023-11-19T00:07:54;2.20;;;1.90;;
36855;SDS011;22788;51.434;6.786;2023-11-19T00:10:20;2.07;;;1.87;;
36855;SDS011;22788;51.434;6.786;2023-11-19T00:12:48;1.80;;;1.70;;
36855;SDS011;22788;51.434;6.786;2023-11-19T00:15:14;2.37;;;2.17;;
36855;SDS011;22788;51.434;6.786;2023-11-19T00:17:41;1.97;;;1.77;;
36855;SDS011;22788;51.434;6.786;2023-11-19T00:20:07;1.90;;;1.80;;
36855;SDS011;22788;51.434;6.786;2023-11-19T00:22:33;1.67;;;1.47;;
36855;SDS011;22788;51.434;6.786;2023-11-19T00:24:59;2.37;;;1.80;;
36855;SDS011;22788;51.434;6.786;2023-11-19T00:27:25;1.87;;;1.50;;
36855;SDS011;22788;51.434;6.786;2023-11-19T00:29:52;1.73;;;1.53;;
36855;SDS011;22788;51.434;6.786;2023-11-19T00:32:18;2.07;;;1.83;;
36855;SDS011;22788;51.434;6.786;2023-11-19T00:34:43;2.50;;;1.57;;
36855;SDS011;22788;51.434;6.786;2023-11-19T00:37:09;1.40;;;1.30;;
36855;SDS011;22788;51.434;6.786;2023-11-19T00:39:35;3.03;;;1.50;;
36855;SDS011;22788;51.434;6.786;2023-11-19T00:42:00;2.17;;;1.70;;
36855;SDS011;22788;51.434;6.786;2023-11-19T00:44:26;1.77;;;1.57;;
36855;SDS011;22788;51.434;6.786;2023-11-19T00:46:53;1.87;;;1.70;;
36855;SDS011;22788;51.434;6.786;2023-11-19T00:49:19;1.63;;;1.40;;
36855;SDS011;22788;51.434;6.786;2023-11-19T00:51:44;1.83;;;1.67;;
36855;SDS011;22788;51.434;6.786;2023-11-19T00:54:10;1.40;;;1.30;;
36855;SDS011;22788;51.434;6.786;2023-11-19T00:56:35;1.50;;;1.40;;
36855;SDS011;22788;51.434;6.786;2023-11-19T00:59:01;2.13;;;1.70;;
36855;SDS011;22788;51.434;6.786;2023-11-19T01:01:26;1.73;;;1.63;;
36855;SDS011;22788;51.434;6.786;2023-11-19T01:03:53;1.93;;;1.70;;
36855;SDS011;22788;51.434;6.786;2023-11-19T01:06:26;2.27;;;1.87;;
36855;SDS011;22788;51.434;6.786;2023-11-19T01:08:52;1.87;;;1.77;;
36855;SDS011;22788;51.434;6.786;2023-11-19T01:11:21;1.53;;;1.33;;
36855;SDS011;22788;51.434;6.786;2023-11-19T01:13:47;1.47;;;1.37;;
36855;SDS011;22788;51.434;6.786;2023-11-19T01:16:12;1.63;;;1.50;;
36855;SDS011;22788;51.434;6.786;2023-11-19T01:18:38;1.70;;;1.60;;
36855;SDS011;22788;51.434;6.786;2023-11-19T01:21:05;1.50;;;1.40;;
36855;SDS011;22788;51.434;6.786;2023-11-19T01:23:33;4.10;;;1.57;;
36855;SDS011;22788;51.434;6.786;2023-11-19T01:25:58;1.70;;;1.43;;
36855;SDS011;22788;51.434;6.786;2023-11-19T01:28:24;1.57;;;1.47;;
36855;SDS011;22788;51.434;6.786;2023-11-19T01:30:50;1.63;;;1.53;;
36855;SDS011;22788;51.434;6.786;2023-11-19T01:33:15;1.50;;;1.40;;
36855;SDS011;22788;51.434;6.786;2023-11-19T01:35:41;1.60;;;1.30;;
36855;SDS011;22788;51.434;6.786;2023-11-19T01:38:08;1.63;;;1.53;;
36855;SDS011;22788;51.434;6.786;2023-11-19T01:40:34;1.80;;;1.30;;
36855;SDS011;22788;51.434;6.786;2023-11-19T01:42:59;2.00;;;1.77;;
36855;SDS011;22788;51.434;6.786;2023-11-19T01:45:26;1.40;;;1.30;;
36855;SDS011;22788;51.434;6.786;2023-11-19T01:47:53;2.43;;;1.50;;
36855;SDS011;22788;51.434;6.786;2023-11-19T01:50:19;1.70;;;1.60;;
36855;SDS011;22788;51.434;6.786;2023-11-19T01:52:45;1.47;;;1.37;;
36855;SDS011;22788;51.434;6.786;2023-11-19T01:55:13;1.30;;;1.20;;
36855;SDS011;22788;51.434;6.786;2023-11-19T01:57:39;2.50;;;1.47;;
36855;SDS011;22788;51.434;6.786;2023-11-19T02:00:05;1.57;;;1.03;;
36855;SDS011;22788;51.434;6.786;2023-11-19T02:02:33;1.40;;;1.27;;
36855;SDS011;22788;51.434;6.786;2023-11-19T02:04:59;1.43;;;1.20;;
36855;SDS011;22788;51.434;6.786;2023-11-19T02:07:25;1.67;;;1.57;;
36855;SDS011;22788;51.434;6.786;2023-11-19T02:09:50;1.80;;;1.60;;
36855;SDS011;22788;51.434;6.786;2023-11-19T02:12:17;2.20;;;1.40;;
36855;SDS011;22788;51.434;6.786;2023-11-19T02:14:43;1.70;;;1.60;;
36855;SDS011;22788;51.434;6.786;2023-11-19T02:19:50;1.77;;;1.37;;
36855;SDS011;22788;51.434;6.786;2023-11-19T02:22:15;2.17;;;1.47;;
36855;SDS011;22788;51.434;6.786;2023-11-19T02:24:41;1.33;;;1.23;;
36855;SDS011;22788;51.434;6.786;2023-11-19T02:27:07;1.60;;;1.30;;
36855;SDS011;22788;51.434;6.786;2023-11-19T02:29:42;2.50;;;1.43;;
36855;SDS011;22788;51.434;6.786;2023-11-19T02:32:07;1.70;;;1.37;;
36855;SDS011;22788;51.434;6.786;2023-11-19T02:34:33;1.87;;;1.10;;
36855;SDS011;22788;51.434;6.786;2023-11-19T02:36:59;2.43;;;1.43;;
36855;SDS011;22788;51.434;6.786;2023-11-19T02:39:27;1.67;;;1.27;;
36855;SDS011;22788;51.434;6.786;2023-11-19T02:41:53;2.53;;;1.30;;
36855;SDS011;22788;51.434;6.786;2023-11-19T02:44:18;2.07;;;1.30;;
36855;SDS011;22788;51.434;6.786;2023-11-19T02:46:45;3.23;;;2.00;;
36855;SDS011;22788;51.434;6.786;2023-11-19T02:49:11;3.47;;;2.13;;
36855;SDS011;22788;51.434;6.786;2023-11-19T02:51:37;2.33;;;1.77;;
36855;SDS011;22788;51.434;6.786;2023-11-19T02:54:02;5.23;;;1.73;;
36855;SDS011;22788;51.434;6.786;2023-11-19T02:56:28;2.73;;;1.73;;
36855;SDS011;22788;51.434;6.786;2023-11-19T02:58:54;2.83;;;1.67;;
36855;SDS011;22788;51.434;6.786;2023-11-19T03:01:22;3.13;;;2.07;;
36855;SDS011;22788;51.434;6.786;2023-11-19T03:03:50;5.40;;;2.10;;
36855;SDS011;22788;51.434;6.786;2023-11-19T03:06:15;3.23;;;1.83;;
36855;SDS011;22788;51.434;6.786;2023-11-19T03:08:41;4.83;;;2.10;;
36855;SDS011;22788;51.434;6.786;2023-11-19T03:11:07;3.63;;;1.77;;
36855;SDS011;22788;51.434;6.786;2023-11-19T03:13:33;4.17;;;1.90;;
36855;SDS011;22788;51.434;6.786;2023-11-19T03:15:59;2.70;;;1.90;;
36855;SDS011;22788;51.434;6.786;2023-11-19T03:18:24;3.73;;;1.70;;
36855;SDS011;22788;51.434;6.786;2023-11-19T03:20:51;6.40;;;2.27;;
36855;SDS011;22788;51.434;6.786;2023-11-19T03:23:17;6.57;;;3.00;;
36855;SDS011;22788;51.434;6.786;2023-11-19T03:25:42;6.17;;;2.07;;
36855;SDS011;22788;51.434;6.786;2023-11-19T03:28:08;9.80;;;3.07;;
36855;SDS011;22788;51.434;6.786;2023-11-19T03:30:34;5.57;;;2.50;;
36855;SDS011;22788;51.434;6.786;2023-11-19T03:32:59;8.73;;;3.00;;
36855;SDS011;22788;51.434;6.786;2023-11-19T03:35:25;6.63;;;1.90;;
36855;SDS011;22788;51.434;6.786;2023-11-19T03:37:52;4.00;;;1.83;;
36855;SDS011;22788;51.434;6.786;2023-11-19T03:40:18;10.63;;;2.97;;
36855;SDS011;22788;51.434;6.786;2023-11-19T03:42:44;7.80;;;1.83;;
36855;SDS011;22788;51.434;6.786;2023-11-19T03:45:09;7.13;;;2.20;;
36855;SDS011;22788;51.434;6.786;2023-11-19T03:47:35;7.07;;;2.33;;
36855;SDS011;22788;51.434;6.786;2023-11-19T03:50:01;2.10;;;1.80;;
36855;SDS011;22788;51.434;6.786;2023-11-19T03:52:27;4.00;;;1.80;;
36855;SDS011;22788;51.434;6.786;2023-11-19T03:54:55;2.37;;;1.80;;
36855;SDS011;22788;51.434;6.786;2023-11-19T03:57:21;6.53;;;2.30;;
36855;SDS011;22788;51.434;6.786;2023-11-19T03:59:47;5.67;;;1.87;;
36855;SDS011;22788;51.434;6.786;2023-11-19T04:02:12;11.83;;;2.83;;
36855;SDS011;22788;51.434;6.786;2023-11-19T04:04:38;5.90;;;2.17;;
36855;SDS011;22788;51.434;6.786;2023-11-19T04:07:04;4.97;;;2.13;;
36855;SDS011;22788;51.434;6.786;2023-11-19T04:09:30;7.43;;;2.30;;
36855;SDS011;22788;51.434;6.786;2023-11-19T04:11:57;5.43;;;1.73;;
36855;SDS011;22788;51.434;6.786;2023-11-19T04:14:23;5.03;;;2.73;;
36855;SDS011;22788;51.434;6.786;2023-11-19T04:16:48;7.83;;;1.73;;
36855;SDS011;22788;51.434;6.786;2023-11-19T04:19:14;8.43;;;2.30;;
36855;SDS011;22788;51.434;6.786;2023-11-19T04:21:39;13.30;;;3.10;;
36855;SDS011;22788;51.434;6.786;2023-11-19T04:24:05;10.83;;;2.80;;
36855;SDS011;22788;51.434;6.786;2023-11-19T04:26:32;9.30;;;3.00;;
36855;SDS011;22788;51.434;6.786;2023-11-19T04:28:59;8.23;;;2.87;;
36855;SDS011;22788;51.434;6.786;2023-11-19T04:31:28;8.73;;;2.43;;
36855;SDS011;22788;51.434;6.786;2023-11-19T04:33:54;9.00;;;2.50;;
36855;SDS011;22788;51.434;6.786;2023-11-19T04:36:19;13.37;;;2.60;;
36855;SDS011;22788;51.434;6.786;2023-11-19T04:38:45;10.33;;;3.10;;
36855;SDS011;22788;51.434;6.786;2023-11-19T04:41:10;13.97;;;4.53;;
36855;SDS011;22788;51.434;6.786;2023-11-19T04:43:36;12.53;;;3.60;;
36855;SDS011;22788;51.434;6.786;2023-11-19T04:46:04;8.70;;;3.07;;
36855;SDS011;22788;51.434;6.786;2023-11-19T04:48:30;7.63;;;2.80;;
36855;SDS011;22788;51.434;6.786;2023-11-19T04:50:56;17.30;;;4.20;;
36855;SDS011;22788;51.434;6.786;2023-11-19T04:53:21;16.57;;;4.10;;
36855;SDS011;22788;51.434;6.786;2023-11-19T04:55:47;8.87;;;2.97;;
36855;SDS011;22788;51.434;6.786;2023-11-19T04:58:13;9.80;;;2.60;;
36855;SDS011;22788;51.434;6.786;2023-11-19T05:00:38;9.47;;;3.00;;
36855;SDS011;22788;51.434;6.786;2023-11-19T05:03:05;18.33;;;3.73;;
36855;SDS011;22788;51.434;6.786;2023-11-19T05:05:31;4.93;;;2.47;;
36855;SDS011;22788;51.434;6.786;2023-11-19T05:07:56;6.53;;;2.43;;
36855;SDS011;22788;51.434;6.786;2023-11-19T05:10:22;12.13;;;3.23;;
36855;SDS011;22788;51.434;6.786;2023-11-19T05:12:48;15.67;;;4.03;;
36855;SDS011;22788;51.434;6.786;2023-11-19T05:15:13;9.77;;;2.90;;
36855;SDS011;22788;51.434;6.786;2023-11-19T05:17:39;9.60;;;2.70;;
36855;SDS011;22788;51.434;6.786;2023-11-19T05:20:06;12.27;;;3.13;;
36855;SDS011;22788;51.434;6.786;2023-11-19T05:22:33;10.00;;;2.73;;
36855;SDS011;22788;51.434;6.786;2023-11-19T05:24:58;5.90;;;2.33;;
36855;SDS011;22788;51.434;6.786;2023-11-19T05:27:24;7.63;;;2.27;;
36855;SDS011;22788;51.434;6.786;2023-11-19T05:29:49;12.20;;;3.80;;
36855;SDS011;22788;51.434;6.786;2023-11-19T05:32:15;13.17;;;3.47;;
36855;SDS011;22788;51.434;6.786;2023-11-19T05:34:41;8.60;;;3.00;;
36855;SDS011;22788;51.434;6.786;2023-11-19T05:37:08;11.40;;;2.97;;
36855;SDS011;22788;51.434;6.786;2023-11-19T05:39:33;13.47;;;4.27;;
36855;SDS011;22788;51.434;6.786;2023-11-19T05:41:59;13.27;;;3.20;;
36855;SDS011;22788;51.434;6.786;2023-11-19T05:44:25;9.87;;;2.83;;
36855;SDS011;22788;51.434;6.786;2023-11-19T05:46:50;15.60;;;3.60;;
36855;SDS011;22788;51.434;6.786;2023-11-19T05:49:16;11.57;;;3.00;;
36855;SDS011;22788;51.434;6.786;2023-11-19T05:51:42;13.63;;;2.93;;
36855;SDS011;22788;51.434;6.786;2023-11-19T05:54:09;9.70;;;2.97;;
36855;SDS011;22788;51.434;6.786;2023-11-19T05:56:35;10.13;;;3.80;;
36855;SDS011;22788;51.434;6.786;2023-11-19T05:59:00;16.10;;;3.73;;
36855;SDS011;22788;51.434;6.786;2023-11-19T06:01:26;7.63;;;2.90;;
36855;SDS011;22788;51.434;6.786;2023-11-19T06:03:52;21.67;;;4.00;;
36855;SDS011;22788;51.434;6.786;2023-11-19T06:06:18;17.47;;;4.00;;
36855;SDS011;22788;51.434;6.786;2023-11-19T06:08:43;11.40;;;4.03;;
36855;SDS011;22788;51.434;6.786;2023-11-19T06:11:11;11.37;;;3.60;;
36855;SDS011;22788;51.434;6.786;2023-11-19T06:13:36;12.03;;;3.43;;
36855;SDS011;22788;51.434;6.786;2023-11-19T06:16:02;18.33;;;3.57;;
36855;SDS011;22788;51.434;6.786;2023-11-19T06:18:28;19.93;;;3.97;;
36855;SDS011;22788;51.434;6.786;2023-11-19T06:20:54;6.63;;;2.50;;
36855;SDS011;22788;51.434;6.786;2023-11-19T06:23:19;9.00;;;2.40;;
36855;SDS011;22788;51.434;6.786;2023-11-19T06:25:45;13.90;;;3.50;;
36855;SDS011;22788;51.434;6.786;2023-11-19T06:28:12;11.13;;;2.80;;
36855;SDS011;22788;51.434;6.786;2023-11-19T06:30:37;12.83;;;2.97;;
36855;SDS011;22788;51.434;6.786;2023-11-19T06:33:03;10.20;;;2.77;;
36855;SDS011;22788;51.434;6.786;2023-11-19T06:35:29;18.87;;;4.77;;
36855;SDS011;22788;51.434;6.786;2023-11-19T06:37:54;9.17;;;3.47;;
36855;SDS011;22788;51.434;6.786;2023-11-19T06:40:20;21.80;;;4.20;;
36855;SDS011;22788;51.434;6.786;2023-11-19T06:42:45;10.40;;;2.83;;
36855;SDS011;22788;51.434;6.786;2023-11-19T06:45:12;9.60;;;3.10;;
36855;SDS011;22788;51.434;6.786;2023-11-19T06:47:38;20.67;;;3.97;;
36855;SDS011;22788;51.434;6.786;2023-11-19T06:50:04;16.37;;;3.27;;
36855;SDS011;22788;51.434;6.786;2023-11-19T06:52:31;22.70;;;4.53;;
36855;SDS011;22788;51.434;6.786;2023-11-19T06:54:57;12.03;;;3.47;;
36855;SDS011;22788;51.434;6.786;2023-11-19T06:57:22;16.13;;;4.07;;
36855;SDS011;22788;51.434;6.786;2023-11-19T06:59:48;12.30;;;3.10;;
36855;SDS011;22788;51.434;6.786;2023-11-19T07:02:15;17.77;;;3.53;;
36855;SDS011;22788;51.434;6.786;2023-11-19T07:04:42;12.47;;;3.73;;
36855;SDS011;22788;51.434;6.786;2023-11-19T07:07:08;14.37;;;3.30;;
36855;SDS011;22788;51.434;6.786;2023-11-19T07:09:33;18.53;;;4.67;;
36855;SDS011;22788;51.434;6.786;2023-11-19T07:11:59;17.00;;;3.10;;
36855;SDS011;22788;51.434;6.786;2023-11-19T07:14:25;17.20;;;3.77;;
36855;SDS011;22788;51.434;6.786;2023-11-19T07:16:50;8.60;;;2.80;;
36855;SDS011;22788;51.434;6.786;2023-11-19T07:19:17;21.80;;;5.03;;
36855;SDS011;22788;51.434;6.786;2023-11-19T07:21:43;11.50;;;3.10;;
36855;SDS011;22788;51.434;6.786;2023-11-19T07:24:09;12.70;;;3.00;;
36855;SDS011;22788;51.434;6.786;2023-11-19T07:26:35;12.73;;;3.23;;
36855;SDS011;22788;51.434;6.786;2023-11-19T07:29:00;17.20;;;4.40;;
36855;SDS011;22788;51.434;6.786;2023-11-19T07:31:26;16.20;;;3.77;;
36855;SDS011;22788;51.434;6.786;2023-11-19T07:33:52;19.93;;;4.13;;
36855;SDS011;22788;51.434;6.786;2023-11-19T07:36:19;15.63;;;3.90;;
36855;SDS011;22788;51.434;6.786;2023-11-19T07:38:45;11.83;;;2.87;;
36855;SDS011;22788;51.434;6.786;2023-11-19T07:41:11;13.70;;;3.83;;
36855;SDS011;22788;51.434;6.786;2023-11-19T07:43:36;12.87;;;3.10;;
36855;SDS011;22788;51.434;6.786;2023-11-19T07:46:02;10.70;;;3.10;;
36855;SDS011;22788;51.434;6.786;2023-11-19T07:48:28;24.60;;;5.17;;
36855;SDS011;22788;51.434;6.786;2023-11-19T07:50:53;12.90;;;3.43;;
36855;SDS011;22788;51.434;6.786;2023-11-19T07:53:20;7.30;;;3.07;;
36855;SDS011;22788;51.434;6.786;2023-11-19T07:55:46;18.27;;;2.60;;
36855;SDS011;22788;51.434;6.786;2023-11-19T07:58:12;7.70;;;2.50;;
36855;SDS011;22788;51.434;6.786;2023-11-19T08:00:37;13.40;;;3.13;;
36855;SDS011;22788;51.434;6.786;2023-11-19T08:03:03;13.77;;;2.97;;
36855;SDS011;22788;51.434;6.786;2023-11-19T08:05:29;13.17;;;3.27;;
36855;SDS011;22788;51.434;6.786;2023-11-19T08:07:55;13.03;;;3.20;;
36855;SDS011;22788;51.434;6.786;2023-11-19T08:10:23;16.43;;;4.10;;
36855;SDS011;22788;51.434;6.786;2023-11-19T08:12:48;14.20;;;3.40;;
36855;SDS011;22788;51.434;6.786;2023-11-19T08:15:14;11.90;;;4.07;;
36855;SDS011;22788;51.434;6.786;2023-11-19T08:17:40;16.10;;;3.57;;
36855;SDS011;22788;51.434;6.786;2023-11-19T08:20:06;18.93;;;4.53;;
36855;SDS011;22788;51.434;6.786;2023-11-19T08:22:33;22.40;;;4.67;;
36855;SDS011;22788;51.434;6.786;2023-11-19T08:24:58;15.20;;;4.20;;
36855;SDS011;22788;51.434;6.786;2023-11-19T08:27:25;21.97;;;4.00;;
36855;SDS011;22788;51.434;6.786;2023-11-19T08:29:51;15.97;;;3.50;;
36855;SDS011;22788;51.434;6.786;2023-11-19T08:32:17;22.33;;;4.77;;
36855;SDS011;22788;51.434;6.786;2023-11-19T08:34:43;13.00;;;3.17;;
36855;SDS011;22788;51.434;6.786;2023-11-19T08:37:08;22.00;;;4.03;;
36855;SDS011;22788;51.434;6.786;2023-11-19T08:39:34;13.57;;;3.00;;
36855;SDS011;22788;51.434;6.786;2023-11-19T08:41:59;27.87;;;3.90;;
36855;SDS011;22788;51.434;6.786;2023-11-19T08:44:27;17.77;;;4.30;;
36855;SDS011;22788;51.434;6.786;2023-11-19T08:46:52;11.93;;;3.50;;
36855;SDS011;22788;51.434;6.786;2023-11-19T08:49:18;22.37;;;4.87;;
36855;SDS011;22788;51.434;6.786;2023-11-19T08:51:43;15.40;;;3.20;;
36855;SDS011;22788;51.434;6.786;2023-11-19T08:54:09;9.83;;;3.63;;
36855;SDS011;22788;51.434;6.786;2023-11-19T08:56:35;14.60;;;4.27;;
36855;SDS011;22788;51.434;6.786;2023-11-19T08:59:00;12.30;;;4.10;;
36855;SDS011;22788;51.434;6.786;2023-11-19T09:01:27;18.43;;;4.67;;
36855;SDS011;22788;51.434;6.786;2023-11-19T09:03:53;20.97;;;4.33;;
36855;SDS011;22788;51.434;6.786;2023-11-19T09:06:18;15.33;;;4.13;;
36855;SDS011;22788;51.434;6.786;2023-11-19T09:08:44;16.77;;;3.73;;
36855;SDS011;22788;51.434;6.786;2023-11-19T09:11:09;21.20;;;5.07;;
36855;SDS011;22788;51.434;6.786;2023-11-19T09:13:35;22.27;;;4.63;;
36855;SDS011;22788;51.434;6.786;2023-11-19T09:16:01;24.63;;;4.73;;
36855;SDS011;22788;51.434;6.786;2023-11-19T09:18:28;13.80;;;4.33;;
36855;SDS011;22788;51.434;6.786;2023-11-19T09:20:53;14.80;;;3.87;;
36855;SDS011;22788;51.434;6.786;2023-11-19T09:23:19;22.20;;;4.03;;
36855;SDS011;22788;51.434;6.786;2023-11-19T09:25:45;25.97;;;5.23;;
36855;SDS011;22788;51.434;6.786;2023-11-19T09:28:10;13.67;;;3.97;;
36855;SDS011;22788;51.434;6.786;2023-11-19T09:30:36;19.77;;;4.13;;
36855;SDS011;22788;51.434;6.786;2023-11-19T09:33:01;18.17;;;5.00;;
36855;SDS011;22788;51.434;6.786;2023-11-19T09:35:29;21.30;;;4.83;;
36855;SDS011;22788;51.434;6.786;2023-11-19T09:37:54;20.37;;;4.30;;
36855;SDS011;22788;51.434;6.786;2023-11-19T09:40:20;19.23;;;4.40;;
36855;SDS011;22788;51.434;6.786;2023-11-19T09:42:45;20.40;;;5.03;;
36855;SDS011;22788;51.434;6.786;2023-11-19T09:45:12;25.27;;;4.00;;
36855;SDS011;22788;51.434;6.786;2023-11-19T09:47:39;26.37;;;4.97;;
36855;SDS011;22788;51.434;6.786;2023-11-19T09:50:06;18.57;;;4.03;;
36855;SDS011;22788;51.434;6.786;2023-11-19T09:52:33;18.70;;;4.90;;
36855;SDS011;22788;51.434;6.786;2023-11-19T09:54:59;18.03;;;4.67;;
36855;SDS011;22788;51.434;6.786;2023-11-19T09:57:25;28.70;;;4.93;;
36855;SDS011;22788;51.434;6.786;2023-11-19T09:59:52;20.87;;;3.93;;
36855;SDS011;22788;51.434;6.786;2023-11-19T10:02:19;23.10;;;4.67;;
36855;SDS011;22788;51.434;6.786;2023-11-19T10:04:45;26.50;;;4.97;;
36855;SDS011;22788;51.434;6.786;2023-11-19T10:07:12;20.67;;;5.77;;
36855;SDS011;22788;51.434;6.786;2023-11-19T10:09:39;21.60;;;4.40;;
36855;SDS011;22788;51.434;6.786;2023-11-19T10:12:05;21.30;;;5.67;;
36855;SDS011;22788;51.434;6.786;2023-11-19T10:14:31;26.07;;;6.00;;
36855;SDS011;22788;51.434;6.786;2023-11-19T10:16:58;20.13;;;4.27;;
36855;SDS011;22788;51.434;6.786;2023-11-19T10:19:24;17.50;;;3.87;;
36855;SDS011;22788;51.434;6.786;2023-11-19T10:21:50;26.50;;;4.73;;
36855;SDS011;22788;51.434;6.786;2023-11-19T10:24:16;23.00;;;4.37;;
36855;SDS011;22788;51.434;6.786;2023-11-19T10:26:43;23.93;;;5.30;;
36855;SDS011;22788;51.434;6.786;2023-11-19T10:29:10;26.83;;;4.80;;
36855;SDS011;22788;51.434;6.786;2023-11-19T10:31:38;18.43;;;4.53;;
36855;SDS011;22788;51.434;6.786;2023-11-19T10:34:04;23.67;;;5.27;;
36855;SDS011;22788;51.434;6.786;2023-11-19T10:36:49;21.63;;;4.60;;
36855;SDS011;22788;51.434;6.786;2023-11-19T10:39:15;23.53;;;5.00;;
36855;SDS011;22788;51.434;6.786;2023-11-19T10:41:41;11.87;;;3.97;;
36855;SDS011;22788;51.434;6.786;2023-11-19T10:44:08;18.57;;;5.60;;
36855;SDS011;22788;51.434;6.786;2023-11-19T10:46:38;24.20;;;3.83;;
36855;SDS011;22788;51.434;6.786;2023-11-19T10:49:04;16.57;;;4.23;;
36855;SDS011;22788;51.434;6.786;2023-11-19T10:51:30;24.20;;;4.83;;
36855;SDS011;22788;51.434;6.786;2023-11-19T10:53:57;10.93;;;3.67;;
36855;SDS011;22788;51.434;6.786;2023-11-19T10:56:27;17.77;;;4.30;;
36855;SDS011;22788;51.434;6.786;2023-11-19T10:58:55;17.83;;;4.40;;
36855;SDS011;22788;51.434;6.786;2023-11-19T11:01:23;21.27;;;4.67;;
36855;SDS011;22788;51.434;6.786;2023-11-19T11:03:50;19.10;;;4.03;;
36855;SDS011;22788;51.434;6.786;2023-11-19T11:06:17;17.67;;;5.00;;
36855;SDS011;22788;51.434;6.786;2023-11-19T11:08:44;15.37;;;3.97;;
36855;SDS011;22788;51.434;6.786;2023-11-19T11:11:11;17.83;;;5.43;;
36855;SDS011;22788;51.434;6.786;2023-11-19T11:13:39;13.17;;;3.87;;
36855;SDS011;22788;51.434;6.786;2023-11-19T11:16:06;21.80;;;4.67;;
36855;SDS011;22788;51.434;6.786;2023-11-19T11:18:34;20.50;;;3.97;;
36855;SDS011;22788;51.434;6.786;2023-11-19T11:21:02;17.13;;;4.33;;
36855;SDS011;22788;51.434;6.786;2023-11-19T11:23:35;10.83;;;4.00;;
36855;SDS011;22788;51.434;6.786;2023-11-19T11:26:06;15.57;;;4.07;;
36855;SDS011;22788;51.434;6.786;2023-11-19T11:28:37;15.37;;;4.37;;
36855;SDS011;22788;51.434;6.786;2023-11-19T11:33:55;23.05;;;6.35;;
36855;SDS011;22788;51.434;6.786;2023-11-19T11:36:24;14.27;;;4.13;;
36855;SDS011;22788;51.434;6.786;2023-11-19T11:38:50;26.70;;;6.00;;
36855;SDS011;22788;51.434;6.786;2023-11-19T11:41:18;20.30;;;5.47;;
36855;SDS011;22788;51.434;6.786;2023-11-19T11:43:44;19.93;;;4.97;;
36855;SDS011;22788;51.434;6.786;2023-11-19T11:46:18;26.53;;;4.47;;
36855;SDS011;22788;51.434;6.786;2023-11-19T11:49:26;20.60;;;4.60;;
36855;SDS011;22788;51.434;6.786;2023-11-19T11:52:01;22.27;;;5.50;;
36855;SDS011;22788;51.434;6.786;2023-11-19T11:54:28;24.00;;;5.43;;
36855;SDS011;22788;51.434;6.786;2023-11-19T11:57:01;24.75;;;5.57;;
36855;SDS011;22788;51.434;6.786;2023-11-19T11:59:31;15.07;;;3.63;;
36855;SDS011;22788;51.434;6.786;2023-11-19T12:02:01;22.95;;;5.70;;
36855;SDS011;22788;51.434;6.786;2023-11-19T12:04:30;27.95;;;5.72;;
36855;SDS011;22788;51.434;6.786;2023-11-19T12:07:02;18.00;;;4.23;;
36855;SDS011;22788;51.434;6.786;2023-11-19T12:09:29;21.52;;;5.85;;
36855;SDS011;22788;51.434;6.786;2023-11-19T12:12:06;16.67;;;4.60;;
36855;SDS011;22788;51.434;6.786;2023-11-19T12:17:42;19.77;;;4.10;;
36855;SDS011;22788;51.434;6.786;2023-11-19T12:20:10;18.13;;;3.93;;
36855;SDS011;22788;51.434;6.786;2023-11-19T12:22:36;19.67;;;3.93;;
36855;SDS011;22788;51.434;6.786;2023-11-19T12:25:03;19.27;;;4.40;;
36855;SDS011;22788;51.434;6.786;2023-11-19T12:27:30;16.57;;;4.37;;
36855;SDS011;22788;51.434;6.786;2023-11-19T12:29:56;17.53;;;4.40;;
36855;SDS011;22788;51.434;6.786;2023-11-19T12:32:22;18.33;;;3.70;;
36855;SDS011;22788;51.434;6.786;2023-11-19T12:34:47;18.43;;;4.80;;
36855;SDS011;22788;51.434;6.786;2023-11-19T12:37:14;17.47;;;4.80;;
36855;SDS011;22788;51.434;6.786;2023-11-19T12:39:40;20.70;;;4.97;;
36855;SDS011;22788;51.434;6.786;2023-11-19T12:42:06;21.60;;;5.20;;
36855;SDS011;22788;51.434;6.786;2023-11-19T12:44:31;16.90;;;4.80;;
36855;SDS011;22788;51.434;6.786;2023-11-19T12:47:00;16.77;;;4.80;;
36855;SDS011;22788;51.434;6.786;2023-11-19T12:49:29;18.97;;;4.33;;
36855;SDS011;22788;51.434;6.786;2023-11-19T12:51:55;15.13;;;4.00;;
36855;SDS011;22788;51.434;6.786;2023-11-19T12:54:32;18.13;;;4.03;;
36855;SDS011;22788;51.434;6.786;2023-11-19T12:56:58;13.47;;;3.50;;
36855;SDS011;22788;51.434;6.786;2023-11-19T12:59:24;18.17;;;3.67;;
36855;SDS011;22788;51.434;6.786;2023-11-19T13:01:55;15.60;;;4.83;;
36855;SDS011;22788;51.434;6.786;2023-11-19T13:04:21;15.13;;;3.53;;
36855;SDS011;22788;51.434;6.786;2023-11-19T13:06:47;12.23;;;3.27;;
36855;SDS011;22788;51.434;6.786;2023-11-19T13:09:22;15.10;;;4.27;;
36855;SDS011;22788;51.434;6.786;2023-11-19T13:11:50;12.87;;;3.63;;
36855;SDS011;22788;51.434;6.786;2023-11-19T13:14:16;11.53;;;2.73;;
36855;SDS011;22788;51.434;6.786;2023-11-19T13:16:41;11.30;;;3.60;;
36855;SDS011;22788;51.434;6.786;2023-11-19T13:19:07;11.40;;;2.97;;
36855;SDS011;22788;51.434;6.786;2023-11-19T13:21:33;14.93;;;3.90;;
36855;SDS011;22788;51.434;6.786;2023-11-19T13:23:59;11.60;;;3.53;;
36855;SDS011;22788;51.434;6.786;2023-11-19T13:26:24;16.83;;;5.33;;
36855;SDS011;22788;51.434;6.786;2023-11-19T13:28:51;15.47;;;3.80;;
36855;SDS011;22788;51.434;6.786;2023-11-19T13:31:17;20.90;;;4.40;;
36855;SDS011;22788;51.434;6.786;2023-11-19T13:33:42;11.23;;;4.30;;
36855;SDS011;22788;51.434;6.786;2023-11-19T13:36:08;8.53;;;3.97;;
36855;SDS011;22788;51.434;6.786;2023-11-19T13:38:34;17.17;;;4.83;;
36855;SDS011;22788;51.434;6.786;2023-11-19T13:41:00;11.03;;;3.53;;
36855;SDS011;22788;51.434;6.786;2023-11-19T13:43:26;15.17;;;4.00;;
36855;SDS011;22788;51.434;6.786;2023-11-19T13:45:54;19.37;;;5.17;;
36855;SDS011;22788;51.434;6.786;2023-11-19T13:48:19;15.73;;;4.77;;
36855;SDS011;22788;51.434;6.786;2023-11-19T13:50:45;14.27;;;4.73;;
36855;SDS011;22788;51.434;6.786;2023-11-19T13:53:10;15.47;;;5.70;;
36855;SDS011;22788;51.434;6.786;2023-11-19T13:55:36;17.13;;;4.87;;
36855;SDS011;22788;51.434;6.786;2023-11-19T14:01:07;14.47;;;4.90;;
36855;SDS011;22788;51.434;6.786;2023-11-19T14:03:33;12.97;;;4.97;;
36855;SDS011;22788;51.434;6.786;2023-11-19T14:05:58;22.97;;;5.20;;
36855;SDS011;22788;51.434;6.786;2023-11-19T14:08:24;10.20;;;4.33;;
36855;SDS011;22788;51.434;6.786;2023-11-19T14:10:49;21.10;;;4.97;;
36855;SDS011;22788;51.434;6.786;2023-11-19T14:13:15;17.57;;;5.23;;
36855;SDS011;22788;51.434;6.786;2023-11-19T14:15:41;11.73;;;3.67;;
36855;SDS011;22788;51.434;6.786;2023-11-19T14:18:08;15.30;;;4.23;;
36855;SDS011;22788;51.434;6.786;2023-11-19T14:20:33;13.60;;;4.33;;
36855;SDS011;22788;51.434;6.786;2023-11-19T14:22:59;15.13;;;4.20;;
36855;SDS011;22788;51.434;6.786;2023-11-19T14:25:24;21.67;;;4.20;;
36855;SDS011;22788;51.434;6.786;2023-11-19T14:27:50;14.87;;;3.90;;
36855;SDS011;22788;51.434;6.786;2023-11-19T14:30:16;17.10;;;4.20;;
36855;SDS011;22788;51.434;6.786;2023-11-19T14:32:42;14.73;;;4.47;;
36855;SDS011;22788;51.434;6.786;2023-11-19T14:35:09;17.47;;;5.63;;
36855;SDS011;22788;51.434;6.786;2023-11-19T14:37:35;13.13;;;4.83;;
36855;SDS011;22788;51.434;6.786;2023-11-19T14:40:01;16.70;;;5.60;;
36855;SDS011;22788;51.434;6.786;2023-11-19T14:42:27;14.00;;;4.27;;
36855;SDS011;22788;51.434;6.786;2023-11-19T14:44:53;15.70;;;4.80;;